Time;durP1;ratioP1;P1;durP2;ratioP2;P2;SDS_P1;SDS_P2;PMS_P1;PMS_P2;Temp;Humidity;BMP_temperature;BMP_pressure;BME280_temperature;BME280_humidity;BME280_pressure;Samples;Min_cycle;Max_cycle;Signal;HPM_P1;HPM_P2
2023/12/10 00:02:18;;;;;;;70.60;37.50;;;;;;;1.02;98.64;98276.10;108310;1304;22202;-54
2023/12/10 00:04:43;;;;;;;74.70;37.80;;;;;;;1.06;98.68;98277.71;108295;1304;22183;-55
2023/12/10 00:07:10;;;;;;;73.50;39.30;;;;;;;1.09;98.70;98275.18;108306;1304;22286;-56
2023/12/10 00:09:35;;;;;;;76.90;38.00;;;;;;;1.12;98.51;98270.76;108306;1304;22411;-54
2023/12/10 00:12:01;;;;;;;77.70;38.80;;;;;;;1.15;98.41;98272.56;108286;1304;22260;-55
2023/12/10 00:14:26;;;;;;;71.20;36.60;;;;;;;1.16;98.32;98276.17;108299;1304;22403;-55
2023/12/10 00:16:52;;;;;;;75.90;38.60;;;;;;;1.19;98.19;98270.88;108299;1304;22253;-55
2023/12/10 00:19:18;;;;;;;74.30;39.10;;;;;;;1.20;98.06;98266.36;108295;1304;22248;-55
2023/12/10 00:21:43;;;;;;;72.40;38.20;;;;;;;1.22;98.06;98265.26;108290;1304;22230;-55
2023/12/10 00:24:09;;;;;;;71.20;38.40;;;;;;;1.25;97.97;98266.00;108291;1304;22219;-57
2023/12/10 00:26:34;;;;;;;79.70;41.10;;;;;;;1.27;97.83;98257.48;108285;1304;22344;-53
2023/12/10 00:28:59;;;;;;;71.40;37.90;;;;;;;1.31;97.78;98254.58;108292;1304;22407;-54
2023/12/10 00:31:25;;;;;;;67.20;36.50;;;;;;;1.33;97.99;98259.34;108301;1304;22258;-54
2023/12/10 00:33:50;;;;;;;72.70;38.50;;;;;;;1.38;97.76;98259.89;108299;1304;22314;-55
2023/12/10 00:36:18;;;;;;;72.70;37.90;;;;;;;1.39;97.63;98260.36;108282;1304;23187;-55
2023/12/10 00:38:43;;;;;;;70.40;37.80;;;;;;;1.44;97.77;98263.78;108296;1304;22244;-54
2023/12/10 00:41:10;;;;;;;69.10;36.60;;;;;;;1.44;97.31;98265.71;108289;1304;22319;-55
2023/12/10 00:43:36;;;;;;;70.90;36.60;;;;;;;1.43;97.30;98264.53;108296;1304;22395;-54
2023/12/10 00:46:02;;;;;;;70.30;37.20;;;;;;;1.47;97.40;98262.46;108309;1304;22899;-54
2023/12/10 00:48:28;;;;;;;71.00;35.40;;;;;;;1.51;97.34;98260.96;108301;1304;22898;-55
2023/12/10 00:50:53;;;;;;;65.70;33.00;;;;;;;1.54;97.16;98261.05;108309;1304;23017;-55
2023/12/10 00:53:18;;;;;;;64.10;31.80;;;;;;;1.60;97.14;98257.21;108305;1304;23008;-54
2023/12/10 00:55:44;;;;;;;69.30;34.00;;;;;;;1.57;96.64;98247.80;108276;1304;22394;-56
2023/12/10 00:58:11;;;;;;;60.50;32.70;;;;;;;1.59;96.72;98246.86;108287;1304;22238;-55
2023/12/10 01:00:36;;;;;;;63.10;31.40;;;;;;;1.57;96.45;98244.01;108299;1304;22913;-56
2023/12/10 01:03:04;;;;;;;71.10;32.80;;;;;;;1.54;96.09;98242.35;108304;1304;22302;-54
2023/12/10 01:05:29;;;;;;;67.90;31.80;;;;;;;1.58;96.18;98244.48;108300;1304;22230;-55
2023/12/10 01:07:55;;;;;;;59.90;31.90;;;;;;;1.61;96.37;98249.21;108311;1304;22207;-54
2023/12/10 01:10:20;;;;;;;53.70;29.30;;;;;;;1.62;96.04;98247.42;108292;1304;22217;-55
2023/12/10 01:12:46;;;;;;;59.90;31.30;;;;;;;1.59;95.77;98243.41;108288;1304;22898;-55
2023/12/10 01:15:11;;;;;;;55.00;31.10;;;;;;;1.58;95.74;98232.23;108289;1304;22214;-56
2023/12/10 01:17:37;;;;;;;60.90;30.90;;;;;;;1.56;95.71;98232.66;108277;1304;22268;-55
2023/12/10 01:20:03;;;;;;;53.60;28.30;;;;;;;1.54;95.43;98229.92;108283;1304;22236;-55
2023/12/10 01:22:29;;;;;;;50.90;26.70;;;;;;;1.59;95.59;98227.52;108271;1304;22535;-55
2023/12/10 01:24:55;;;;;;;57.10;29.80;;;;;;;1.54;95.31;98223.70;108294;1304;23023;-55
2023/12/10 01:27:21;;;;;;;55.30;29.20;;;;;;;1.55;95.27;98218.88;108288;1304;22212;-55
2023/12/10 01:29:47;;;;;;;54.90;29.30;;;;;;;1.60;95.21;98220.23;108291;1304;22225;-56
2023/12/10 01:32:12;;;;;;;57.40;29.30;;;;;;;1.66;95.34;98225.55;108285;1304;22276;-54
2023/12/10 01:34:38;;;;;;;53.10;28.60;;;;;;;1.70;95.23;98224.02;108256;1304;22208;-54
2023/12/10 01:37:03;;;;;;;53.50;28.80;;;;;;;1.73;95.01;98221.47;108282;1304;23350;-52
2023/12/10 01:39:32;;;;;;;55.10;29.00;;;;;;;1.73;94.46;98215.95;108307;1304;22325;-50
2023/12/10 01:41:57;;;;;;;54.30;26.70;;;;;;;1.69;94.17;98214.55;108284;1304;22244;-52
2023/12/10 01:44:23;;;;;;;52.20;27.60;;;;;;;1.55;94.05;98210.55;108295;1304;22222;-54
2023/12/10 01:46:48;;;;;;;58.00;29.80;;;;;;;1.55;94.25;98207.27;108274;1304;22233;-55
2023/12/10 01:49:17;;;;;;;62.60;30.80;;;;;;;1.56;94.37;98208.46;108273;1304;22245;-54
2023/12/10 01:51:44;;;;;;;60.40;28.70;;;;;;;1.56;94.60;98204.30;108290;1304;22241;-54
2023/12/10 01:54:24;;;;;;;57.30;28.90;;;;;;;1.50;94.59;98200.05;108267;1302;22272;-55
2023/12/10 01:56:50;;;;;;;54.30;28.40;;;;;;;1.46;94.56;98192.91;108282;1304;22378;-53
2023/12/10 01:59:18;;;;;;;52.30;28.40;;;;;;;1.46;94.68;98188.41;108285;1299;22759;-54
2023/12/10 02:01:45;;;;;;;53.50;28.60;;;;;;;1.41;94.64;98179.79;108292;1304;22937;-55
2023/12/10 02:04:11;;;;;;;56.60;29.10;;;;;;;1.33;94.75;98181.46;108258;1304;22296;-54
2023/12/10 02:06:37;;;;;;;54.50;29.50;;;;;;;1.30;94.88;98183.80;108278;1304;23020;-57
2023/12/10 02:09:09;;;;;;;50.90;28.20;;;;;;;1.28;95.02;98179.24;108292;1304;22337;-55
2023/12/10 02:11:35;;;;;;;56.70;28.20;;;;;;;1.24;95.04;98181.27;108285;1304;22223;-54
2023/12/10 02:14:00;;;;;;;56.00;27.30;;;;;;;1.19;95.09;98184.20;108291;1304;23110;-54
2023/12/10 02:16:26;;;;;;;58.40;29.70;;;;;;;1.16;95.12;98178.96;108288;1304;22399;-53
2023/12/10 02:18:51;;;;;;;62.00;29.10;;;;;;;1.15;95.16;98177.06;108277;1304;22441;-56
2023/12/10 02:21:18;;;;;;;53.20;28.50;;;;;;;1.13;95.18;98180.27;108268;1304;22404;-54
2023/12/10 02:23:58;;;;;;;63.10;30.10;;;;;;;1.09;95.24;98171.25;108277;1304;22260;-55
2023/12/10 02:26:24;;;;;;;57.70;29.10;;;;;;;1.06;95.23;98167.39;108291;1304;22412;-54
2023/12/10 02:28:50;;;;;;;61.80;30.10;;;;;;;1.03;95.16;98167.17;108297;1304;22206;-54
2023/12/10 02:31:18;;;;;;;63.40;31.40;;;;;;;0.99;95.26;98166.80;108287;1304;22608;-54
2023/12/10 02:33:43;;;;;;;55.60;30.10;;;;;;;0.95;95.35;98167.26;108289;1304;22459;-55
2023/12/10 02:36:09;;;;;;;65.30;31.10;;;;;;;0.90;95.21;98161.19;108277;1304;22224;-55
2023/12/10 02:38:34;;;;;;;63.30;32.20;;;;;;;0.89;95.21;98155.55;108297;1304;22411;-54
2023/12/10 02:43:39;;;;;;;62.80;34.10;;;;;;;0.92;95.18;98147.86;106692;1305;546117;-53
2023/12/10 02:46:04;;;;;;;67.90;33.40;;;;;;;0.88;95.01;98149.90;107125;1316;24245;-53
2023/12/10 02:48:30;;;;;;;66.50;32.40;;;;;;;0.84;94.99;98154.88;107193;1315;22587;-53
2023/12/10 02:50:55;;;;;;;66.60;31.90;;;;;;;0.79;94.97;98148.63;107188;1315;23419;-54
2023/12/10 02:53:21;;;;;;;79.80;37.00;;;;;;;0.76;95.00;98144.44;107173;1315;22255;-54
2023/12/10 02:55:46;;;;;;;76.10;36.80;;;;;;;0.76;95.01;98150.33;107208;1304;22325;-51
2023/12/10 02:58:12;;;;;;;68.00;35.10;;;;;;;0.71;94.86;98148.05;107224;1313;147936;-49
2023/12/10 03:00:37;;;;;;;71.30;34.50;;;;;;;0.65;94.92;98142.91;107350;1313;22249;-50
2023/12/10 03:03:03;;;;;;;71.70;35.50;;;;;;;0.56;94.93;98138.55;107328;1313;22447;-53
2023/12/10 03:05:28;;;;;;;73.80;36.00;;;;;;;0.51;94.90;98139.92;107356;1313;22279;-54
2023/12/10 03:07:54;;;;;;;74.50;36.00;;;;;;;0.46;95.06;98142.33;107358;1313;23017;-54
2023/12/10 03:10:19;;;;;;;72.90;37.30;;;;;;;0.43;95.08;98132.77;107353;1311;22376;-55
2023/12/10 03:12:45;;;;;;;72.30;36.40;;;;;;;0.40;95.14;98131.14;107358;1313;22274;-55
2023/12/10 03:15:11;;;;;;;73.10;36.70;;;;;;;0.39;95.23;98131.71;107353;1313;22238;-55
2023/12/10 03:17:36;;;;;;;76.00;36.70;;;;;;;0.35;95.32;98136.33;107362;1313;23710;-54
2023/12/10 03:20:03;;;;;;;73.20;35.80;;;;;;;0.33;95.44;98138.42;107341;1313;22495;-54
2023/12/10 03:22:29;;;;;;;69.40;34.60;;;;;;;0.25;95.51;98141.64;107627;1310;23121;-55
2023/12/10 03:24:54;;;;;;;68.10;34.00;;;;;;;0.20;95.83;98144.89;107636;1309;22477;-54
2023/12/10 03:27:20;;;;;;;72.80;34.70;;;;;;;0.13;96.09;98158.71;107646;1310;22262;-54
2023/12/10 03:29:45;;;;;;;67.90;34.90;;;;;;;0.16;96.01;98156.38;107666;1310;22862;-56
2023/12/10 03:32:11;;;;;;;74.10;37.20;;;;;;;0.17;96.13;98153.44;107610;1310;22342;-55
2023/12/10 03:34:36;;;;;;;71.30;35.50;;;;;;;0.14;96.07;98150.92;107645;1310;22252;-55
2023/12/10 03:37:02;;;;;;;70.50;37.20;;;;;;;0.12;96.11;98158.09;107637;1310;22232;-54
2023/12/10 03:39:27;;;;;;;69.00;32.90;;;;;;;0.08;96.07;98156.83;107656;1310;22319;-55
2023/12/10 03:41:52;;;;;;;72.80;35.90;;;;;;;-0.05;96.61;98156.52;107644;1310;22509;-50
2023/12/10 03:44:18;;;;;;;75.30;35.80;;;;;;;-0.04;96.57;98153.21;107618;1310;22254;-51
2023/12/10 03:46:43;;;;;;;74.40;35.10;;;;;;;-0.07;96.78;98151.74;107636;1310;22313;-55
2023/12/10 03:49:09;;;;;;;64.60;34.10;;;;;;;-0.13;97.07;98151.77;107674;1310;22183;-55
2023/12/10 03:51:35;;;;;;;65.80;32.70;;;;;;;-0.13;97.05;98147.97;107634;1295;22221;-56
2023/12/10 03:54:01;;;;;;;64.10;35.20;;;;;;;-0.12;97.08;98149.33;107609;1310;22246;-55
2023/12/10 03:56:26;;;;;;;75.60;36.70;;;;;;;-0.16;97.40;98143.08;107613;1310;22255;-55
2023/12/10 03:58:52;;;;;;;68.40;35.30;;;;;;;-0.16;97.41;98137.90;107619;1310;22266;-54
2023/12/10 04:01:17;;;;;;;63.30;31.00;;;;;;;-0.15;97.48;98134.95;107638;1310;22350;-56
2023/12/10 04:03:43;;;;;;;72.50;34.40;;;;;;;-0.18;97.78;98135.71;107625;1310;22258;-55
2023/12/10 04:06:08;;;;;;;72.00;34.00;;;;;;;-0.15;97.48;98135.98;107640;1310;22261;-55
2023/12/10 04:08:34;;;;;;;64.40;32.90;;;;;;;-0.18;97.65;98132.64;107634;1310;23151;-56
2023/12/10 04:10:59;;;;;;;70.30;35.00;;;;;;;-0.20;97.86;98126.30;107646;1310;22892;-55
2023/12/10 04:13:25;;;;;;;65.30;33.50;;;;;;;-0.18;97.78;98124.70;107641;1310;22944;-54
2023/12/10 04:15:50;;;;;;;70.20;32.90;;;;;;;-0.15;97.62;98129.11;107656;1310;22331;-55
2023/12/10 04:18:16;;;;;;;63.10;32.40;;;;;;;-0.24;97.79;98123.67;107641;1310;22497;-56
2023/12/10 04:20:43;;;;;;;72.10;34.60;;;;;;;-0.21;97.63;98121.67;107620;1310;22229;-56
2023/12/10 04:23:08;;;;;;;60.50;28.20;;;;;;;-0.18;97.59;98122.83;107627;1310;22242;-55
2023/12/10 04:25:33;;;;;;;58.70;30.50;;;;;;;-0.21;97.51;98129.95;107647;1310;23139;-55
2023/12/10 04:27:59;;;;;;;70.50;31.90;;;;;;;-0.21;97.42;98135.12;107630;1310;22944;-54
2023/12/10 04:30:26;;;;;;;62.40;31.60;;;;;;;-0.18;97.29;98138.66;107624;1310;23021;-56
2023/12/10 04:32:52;;;;;;;67.40;32.70;;;;;;;-0.16;97.19;98141.34;107636;1310;22972;-54
2023/12/10 04:35:18;;;;;;;66.50;32.90;;;;;;;-0.15;97.15;98142.36;107658;1310;22214;-54
2023/12/10 04:37:43;;;;;;;60.20;29.20;;;;;;;-0.16;96.99;98143.27;107650;1310;22306;-55
2023/12/10 04:40:10;;;;;;;63.70;32.10;;;;;;;-0.16;97.03;98138.42;107649;1310;22277;-56
